Accueil
METAR-TAF:

METAR-TAF

Aéroports :

Aéroport international de Kunming Changshui

Kunming, Chine

latitude: 25-01N, longitude: 102-41E, altitude: 1892 m

Observation

Le bulletin a été fait il y a 1 heure et 9 minutes, à 06:00 UTC
Vent 12 kt de ouest/sud-ouest, variant entre sud/sud-ouest et ouest
Température 26°C
Humidité 58%
Pression 1012 hPa
Visibilité 10 km ou plus
Quelques nuages à une hauteur de 2300 ft, Cumulus congestus.
Nuages épars à une hauteur de 2300 ft
Nuages fragmentés à une hauteur de 3600 ft

METAR: ZPPP 150600Z 24006MPS 210V270 9999 FEW023TCU SCT023 BKN036 26/17 Q1012 NOSIG

Heure: 15:09 (07:09 UTC)

Prévision

Le bulletin a été fait il y a 4 heures et 4 minutes, à 03:05 UTC
Prévision valable du 15 à 06 UTC au 16 à 06 UTC
Vent 10 kt de sud-ouest
Visibilité 10 km ou plus
Nuages épars à une hauteur de 2600 ft

TAF: ZPPP 150305Z 1506/1606 22005MPS 9999 SCT026 TX26/1509Z TN16/1523Z

Observations et prévisions météorologiques de plus de 4000 aéroports (messages METAR et TAF).

Les stations disponibles sont représentées par des disques jaunes et rouges sur la carte.

Passer la souris dessus pour voir le nom de la station.

Cliquer dessus pour voir les observations et prévisions météorologiques.

Pour changer de carte: cliquez sur les boutons verts avec une croix noire pour zoomer, sur le bouton vert avec un tiret pour effectuer un zoom arrière, ou sur les flèches vertes pour les cartes adjacentes.


METAR-TAF: